createdAt,value
2023-04-14T00:01:47.489Z,99.90
2023-04-14T00:04:15.756Z,99.90
2023-04-14T00:06:45.249Z,99.90
2023-04-14T00:09:13.180Z,99.90
2023-04-14T00:11:41.167Z,99.90
2023-04-14T00:14:09.111Z,99.90
2023-04-14T00:16:39.435Z,99.90
2023-04-14T00:19:07.495Z,99.90
2023-04-14T00:21:35.483Z,99.90
2023-04-14T00:24:04.901Z,99.90
2023-04-14T00:26:33.462Z,99.90
2023-04-14T00:29:01.770Z,99.90
2023-04-14T00:31:30.022Z,99.90
2023-04-14T00:33:58.037Z,99.90
2023-04-14T00:36:26.008Z,99.90
2023-04-14T00:38:54.180Z,99.90
2023-04-14T00:41:24.719Z,99.90
2023-04-14T00:43:54.482Z,99.90
2023-04-14T00:46:23.157Z,99.90
2023-04-14T00:48:53.207Z,99.90
2023-04-14T00:51:21.170Z,99.90
2023-04-14T00:53:50.316Z,99.90
2023-04-14T00:56:18.555Z,99.90
2023-04-14T00:58:48.029Z,99.90
2023-04-14T01:01:16.922Z,99.90
2023-04-14T01:03:45.684Z,99.90
2023-04-14T01:06:13.813Z,99.90
2023-04-14T01:08:41.940Z,99.90
2023-04-14T01:11:29.050Z,99.90
2023-04-14T01:14:08.682Z,99.90
2023-04-14T01:16:39.803Z,99.90
2023-04-14T01:19:23.539Z,99.90
2023-04-14T01:21:55.476Z,99.90
2023-04-14T01:24:38.027Z,99.90
2023-04-14T01:27:24.731Z,99.90
2023-04-14T01:30:10.325Z,99.90
2023-04-14T01:32:45.860Z,99.90
2023-04-14T01:35:20.649Z,99.90
2023-04-14T01:37:53.189Z,99.90
2023-04-14T01:40:23.836Z,99.90
2023-04-14T01:43:00.369Z,99.90
2023-04-14T01:45:39.099Z,99.90
2023-04-14T01:48:10.067Z,99.90
2023-04-14T01:50:39.227Z,99.90
2023-04-14T01:53:10.035Z,99.90
2023-04-14T01:55:39.655Z,99.90
2023-04-14T01:58:08.965Z,99.90
2023-04-14T02:00:38.936Z,99.90
2023-04-14T02:03:09.907Z,99.90
2023-04-14T02:05:40.648Z,99.90
2023-04-14T02:08:12.538Z,99.90
2023-04-14T02:10:44.485Z,99.90
2023-04-14T02:13:13.885Z,99.90
2023-04-14T02:15:42.862Z,99.90
2023-04-14T02:18:13.363Z,99.90
2023-04-14T02:20:44.925Z,99.90
2023-04-14T02:23:13.225Z,99.90
2023-04-14T02:26:01.486Z,99.90
2023-04-14T02:28:33.185Z,99.90
2023-04-14T02:31:06.424Z,99.90
2023-04-14T02:33:39.387Z,99.90
2023-04-14T02:36:14.237Z,99.90
2023-04-14T02:38:47.763Z,99.90
2023-04-14T02:41:23.331Z,99.90
2023-04-14T02:44:00.742Z,99.90
2023-04-14T02:46:33.007Z,99.90
2023-04-14T02:49:06.128Z,99.90
2023-04-14T02:51:36.755Z,99.90
2023-04-14T02:54:06.242Z,99.90
2023-04-14T02:56:46.817Z,99.90
2023-04-14T02:59:15.220Z,99.90
2023-04-14T03:02:06.813Z,99.90
2023-04-14T03:04:41.114Z,99.90
2023-04-14T03:07:18.578Z,99.90
2023-04-14T03:09:49.290Z,99.90
2023-04-14T03:12:18.067Z,99.90
2023-04-14T03:14:46.446Z,99.90
2023-04-14T03:17:18.088Z,99.90
2023-04-14T03:19:49.117Z,99.90
2023-04-14T03:22:17.856Z,99.90
2023-04-14T03:24:46.529Z,99.90
2023-04-14T03:27:18.397Z,99.90
2023-04-14T03:29:50.853Z,99.90
2023-04-14T03:32:20.133Z,99.90
2023-04-14T03:34:53.857Z,99.90
2023-04-14T03:37:25.984Z,99.90
2023-04-14T03:39:55.699Z,99.90
2023-04-14T03:42:26.000Z,99.90
2023-04-14T03:44:56.808Z,99.90
2023-04-14T03:47:26.946Z,99.90
2023-04-14T03:50:01.211Z,99.90
2023-04-14T03:52:35.893Z,99.90
2023-04-14T03:55:07.181Z,99.90
2023-04-14T03:57:38.676Z,99.90
2023-04-14T04:00:09.453Z,99.90
2023-04-14T04:02:47.867Z,99.90
2023-04-14T04:05:18.066Z,99.90
2023-04-14T04:07:47.445Z,99.90
2023-04-14T04:10:16.566Z,99.90
2023-04-14T04:12:45.206Z,99.90
2023-04-14T04:15:13.826Z,99.90
2023-04-14T04:17:44.304Z,99.90
2023-04-14T04:20:15.453Z,99.90
2023-04-14T04:22:49.704Z,99.90
2023-04-14T04:25:17.977Z,99.90
2023-04-14T04:27:53.351Z,99.90
2023-04-14T04:30:23.600Z,99.90
2023-04-14T04:32:52.443Z,99.90
2023-04-14T04:35:21.869Z,99.90
2023-04-14T04:37:51.506Z,99.90
2023-04-14T04:40:19.757Z,99.90
2023-04-14T04:42:49.935Z,99.90
2023-04-14T04:45:42.919Z,99.90
2023-04-14T04:48:11.120Z,99.90
2023-04-14T04:50:39.189Z,99.90
2023-04-14T04:53:08.557Z,99.90
2023-04-14T04:55:36.781Z,99.90
2023-04-14T04:58:04.792Z,99.90
2023-04-14T05:00:32.828Z,99.90
2023-04-14T05:03:00.918Z,99.90
2023-04-14T05:05:29.005Z,99.90
2023-04-14T05:07:56.976Z,99.90
2023-04-14T05:10:26.480Z,99.90
2023-04-14T05:12:54.453Z,99.90
2023-04-14T05:15:22.428Z,99.90
2023-04-14T05:17:50.661Z,99.90
2023-04-14T05:20:18.863Z,99.90
2023-04-14T05:22:46.893Z,99.90
2023-04-14T05:25:14.855Z,99.90
2023-04-14T05:27:44.157Z,99.90
2023-04-14T05:30:13.302Z,99.90
2023-04-14T05:32:41.312Z,99.90
2023-04-14T05:35:09.990Z,99.90
2023-04-14T05:37:38.035Z,99.90
2023-04-14T05:40:07.249Z,99.90
2023-04-14T05:42:35.448Z,99.90
2023-04-14T05:45:07.077Z,99.90
2023-04-14T05:47:35.044Z,99.90
2023-04-14T05:50:03.831Z,99.90
2023-04-14T05:52:31.859Z,99.90
2023-04-14T05:54:59.806Z,99.90
2023-04-14T05:57:27.751Z,99.90
2023-04-14T05:59:57.034Z,99.90
2023-04-14T06:02:27.708Z,99.90
2023-04-14T06:04:56.355Z,99.90
2023-04-14T06:07:24.374Z,99.90
2023-04-14T06:09:52.362Z,99.90
2023-04-14T06:12:20.568Z,99.90
2023-04-14T06:14:48.619Z,99.90
2023-04-14T06:17:16.589Z,99.90
2023-04-14T06:19:46.880Z,99.90
2023-04-14T06:22:16.873Z,99.90
2023-04-14T06:24:44.889Z,99.90
2023-04-14T06:27:12.852Z,99.90
2023-04-14T06:29:40.829Z,99.90
2023-04-14T06:32:08.888Z,99.90
2023-04-14T06:34:36.839Z,99.90
2023-04-14T06:37:06.725Z,99.90
2023-04-14T06:39:34.753Z,99.90
2023-04-14T06:42:02.740Z,99.90
2023-04-14T06:44:30.693Z,99.90
2023-04-14T06:46:59.190Z,99.90
2023-04-14T06:49:27.153Z,99.90
2023-04-14T06:51:55.126Z,99.90
2023-04-14T06:54:24.491Z,99.90
2023-04-14T06:56:52.459Z,99.90
2023-04-14T06:59:23.054Z,99.90
2023-04-14T07:01:51.141Z,99.90
2023-04-14T07:04:19.542Z,99.90
2023-04-14T07:06:47.509Z,99.90
2023-04-14T07:09:15.966Z,99.90
2023-04-14T07:11:46.153Z,99.90
2023-04-14T07:14:14.110Z,99.90
2023-04-14T07:16:42.040Z,99.90
2023-04-14T07:19:09.955Z,99.90
2023-04-14T07:21:38.137Z,99.90
2023-04-14T07:24:06.379Z,99.90
2023-04-14T07:26:34.338Z,99.90
2023-04-14T07:29:04.044Z,99.90
2023-04-14T07:31:34.073Z,99.90
2023-04-14T07:34:02.458Z,99.90
2023-04-14T07:36:31.929Z,99.90
2023-04-14T07:38:59.937Z,99.90
2023-04-14T07:41:28.967Z,99.90
2023-04-14T07:43:59.328Z,99.90
2023-04-14T07:46:28.987Z,99.90
2023-04-14T07:48:57.019Z,99.90
2023-04-14T07:51:25.001Z,99.90
2023-04-14T07:53:53.134Z,99.90
2023-04-14T07:56:22.303Z,99.90
2023-04-14T07:58:50.297Z,99.90
2023-04-14T08:01:18.342Z,99.90
2023-04-14T08:03:47.851Z,99.90
2023-04-14T08:06:16.826Z,99.90
2023-04-14T08:08:44.840Z,99.90
2023-04-14T08:11:12.807Z,99.90
2023-04-14T08:13:40.802Z,99.90
2023-04-14T08:16:09.364Z,99.90
2023-04-14T08:18:37.982Z,99.90
2023-04-14T08:21:07.544Z,99.90
2023-04-14T08:23:35.786Z,99.90
2023-04-14T08:26:03.995Z,99.90
2023-04-14T08:28:32.106Z,99.90
2023-04-14T08:31:00.204Z,99.90
2023-04-14T08:33:28.269Z,99.90
2023-04-14T08:36:00.350Z,99.90
2023-04-14T08:38:30.353Z,99.90
2023-04-14T08:41:01.945Z,99.90
2023-04-14T08:43:30.417Z,99.90
2023-04-14T08:46:01.067Z,99.90
2023-04-14T08:48:32.056Z,99.30
2023-04-14T08:51:07.817Z,98.40
2023-04-14T08:53:42.810Z,98.00
2023-04-14T08:56:13.670Z,99.20
2023-04-14T08:58:42.638Z,97.50
2023-04-14T09:01:11.241Z,97.30
2023-04-14T09:03:39.541Z,97.40
2023-04-14T09:06:08.094Z,96.60
2023-04-14T09:08:37.673Z,96.00
2023-04-14T09:11:06.052Z,96.80
2023-04-14T09:13:34.973Z,96.50
2023-04-14T09:16:03.480Z,95.80
2023-04-14T09:18:34.736Z,95.10
2023-04-14T09:21:49.552Z,93.80
2023-04-14T09:23:54.313Z,93.50
2023-04-14T09:26:22.420Z,94.80
2023-04-14T09:28:50.494Z,94.00
2023-04-14T09:31:19.613Z,94.10
2023-04-14T09:33:50.462Z,93.50
2023-04-14T09:36:20.586Z,93.30
2023-04-14T09:38:49.856Z,92.80
2023-04-14T09:41:21.383Z,92.80
2023-04-14T09:43:49.787Z,94.50
2023-04-14T09:46:17.945Z,93.30
2023-04-14T09:48:53.849Z,94.50
2023-04-14T09:51:28.116Z,93.30
2023-04-14T09:53:56.408Z,93.00
2023-04-14T09:56:29.064Z,93.90
2023-04-14T09:59:00.317Z,92.20
2023-04-14T10:01:32.035Z,92.30
2023-04-14T10:04:01.250Z,91.60
2023-04-14T10:06:31.167Z,90.40
2023-04-14T10:08:59.939Z,88.60
2023-04-14T10:11:32.264Z,87.90
2023-04-14T10:14:02.697Z,86.30
2023-04-14T10:16:31.489Z,85.00
2023-04-14T10:19:00.047Z,83.60
2023-04-14T10:21:28.628Z,82.40
2023-04-14T10:23:57.999Z,85.10
2023-04-14T10:26:28.266Z,83.60
2023-04-14T10:28:58.030Z,83.80
2023-04-14T10:31:29.996Z,86.60
2023-04-14T10:33:58.242Z,83.90
2023-04-14T10:36:27.813Z,85.40
2023-04-14T10:39:02.046Z,85.10
2023-04-14T10:41:45.378Z,85.20
2023-04-14T10:44:25.445Z,84.40
2023-04-14T10:46:54.206Z,80.90
2023-04-14T10:49:31.081Z,80.90
2023-04-14T10:52:01.029Z,84.70
2023-04-14T10:54:29.051Z,83.60
2023-04-14T10:57:14.337Z,83.90
2023-04-14T10:59:44.173Z,83.10
2023-04-14T11:02:26.112Z,82.00
2023-04-14T11:05:02.280Z,78.80
2023-04-14T11:07:31.198Z,79.50
2023-04-14T11:10:34.683Z,75.20
2023-04-14T11:13:04.487Z,78.20
2023-04-14T11:15:50.936Z,76.20
2023-04-14T11:18:31.975Z,75.10
2023-04-14T11:21:05.385Z,75.20
2023-04-14T11:23:34.144Z,77.10
2023-04-14T11:26:02.556Z,78.40
2023-04-14T11:28:31.906Z,75.40
2023-04-14T11:31:02.091Z,76.90
2023-04-14T11:33:31.214Z,78.80
2023-04-14T11:35:59.824Z,74.50
2023-04-14T11:38:28.379Z,74.70
2023-04-14T11:40:57.241Z,73.30
2023-04-14T11:43:25.975Z,75.90
2023-04-14T11:45:54.719Z,72.90
2023-04-14T11:48:24.024Z,76.50
2023-04-14T11:50:52.199Z,75.40
2023-04-14T11:53:21.062Z,71.40
2023-04-14T11:55:50.118Z,73.50
2023-04-14T11:58:23.735Z,71.60
2023-04-14T12:00:54.996Z,74.90
2023-04-14T12:03:27.885Z,74.70
2023-04-14T12:05:58.365Z,73.30
2023-04-14T12:08:27.047Z,76.00
2023-04-14T12:10:56.273Z,74.60
2023-04-14T12:13:26.339Z,72.00
2023-04-14T12:15:55.195Z,75.70
2023-04-14T12:18:24.789Z,73.20
2023-04-14T12:20:54.352Z,69.70
2023-04-14T12:23:23.442Z,71.10
2023-04-14T12:25:52.211Z,67.80
2023-04-14T12:28:20.400Z,67.10
2023-04-14T12:30:53.083Z,68.10
2023-04-14T12:33:27.236Z,67.90
2023-04-14T12:36:00.912Z,67.20
2023-04-14T12:38:29.686Z,66.70
2023-04-14T12:40:57.860Z,66.50
2023-04-14T12:43:30.007Z,67.20
2023-04-14T12:45:58.986Z,64.30
2023-04-14T12:48:43.575Z,68.20
2023-04-14T12:51:13.278Z,66.60
2023-04-14T12:53:43.940Z,64.60
2023-04-14T12:56:13.392Z,66.50
2023-04-14T12:58:42.815Z,65.00
2023-04-14T13:01:12.556Z,61.40
2023-04-14T13:03:44.852Z,65.20
2023-04-14T13:06:16.197Z,62.60
2023-04-14T13:08:45.541Z,64.30
2023-04-14T13:11:14.111Z,61.00
2023-04-14T13:13:42.372Z,66.40
2023-04-14T13:16:13.906Z,66.40
2023-04-14T13:18:45.590Z,62.00
2023-04-14T13:21:13.807Z,60.30
2023-04-14T13:23:42.053Z,60.60
2023-04-14T13:26:10.251Z,66.80
2023-04-14T13:28:38.256Z,62.40
2023-04-14T13:31:07.189Z,62.60
2023-04-14T13:33:35.565Z,65.50
2023-04-14T13:36:05.287Z,64.20
2023-04-14T13:38:33.517Z,60.80
2023-04-14T13:41:01.474Z,61.40
2023-04-14T13:43:29.918Z,60.00
2023-04-14T13:45:58.971Z,58.80
2023-04-14T13:48:27.253Z,59.70
2023-04-14T13:50:55.810Z,59.00
2023-04-14T13:53:25.501Z,61.30
2023-04-14T13:55:53.481Z,61.60
2023-04-14T13:58:25.409Z,61.60
2023-04-14T14:00:53.414Z,63.50
2023-04-14T14:03:21.676Z,61.50
2023-04-14T14:05:49.826Z,63.00
2023-04-14T14:08:17.875Z,64.10
2023-04-14T14:10:47.206Z,63.20
2023-04-14T14:13:16.541Z,65.00
2023-04-14T14:15:46.153Z,65.60
2023-04-14T14:18:14.434Z,63.70
2023-04-14T14:20:42.404Z,65.40
2023-04-14T14:23:12.037Z,63.10
2023-04-14T14:25:40.787Z,65.60
2023-04-14T14:28:10.095Z,59.90
2023-04-14T14:30:38.143Z,62.20
2023-04-14T14:33:06.288Z,65.80
2023-04-14T14:35:34.294Z,62.30
2023-04-14T14:38:02.214Z,65.00
2023-04-14T14:40:30.891Z,63.20
2023-04-14T14:42:59.730Z,60.90
2023-04-14T14:45:30.824Z,63.00
2023-04-14T14:48:00.047Z,60.10
2023-04-14T14:50:28.095Z,59.50
2023-04-14T14:52:56.807Z,61.10
2023-04-14T14:55:24.920Z,59.30
2023-04-14T14:57:52.959Z,60.00
2023-04-14T15:00:21.257Z,60.80
2023-04-14T15:02:50.782Z,64.30
2023-04-14T15:05:19.131Z,61.90
2023-04-14T15:07:47.073Z,65.70
2023-04-14T15:10:15.996Z,60.70
2023-04-14T15:12:43.974Z,62.50
2023-04-14T15:15:12.898Z,62.70
2023-04-14T15:17:40.993Z,62.80
2023-04-14T15:20:11.655Z,65.90
2023-04-14T15:22:39.630Z,58.70
2023-04-14T15:25:09.133Z,60.70
2023-04-14T15:27:37.403Z,60.20
2023-04-14T15:30:06.292Z,66.40
2023-04-14T15:32:34.327Z,61.30
2023-04-14T15:35:02.680Z,60.30
2023-04-14T15:37:32.146Z,63.30
2023-04-14T15:40:00.333Z,62.90
2023-04-14T15:42:28.566Z,64.90
2023-04-14T15:44:56.536Z,62.60
2023-04-14T15:47:24.610Z,61.80
2023-04-14T15:50:09.538Z,61.20
2023-04-14T15:52:39.827Z,61.90
2023-04-14T15:55:09.959Z,61.00
2023-04-14T15:57:37.960Z,62.10
2023-04-14T16:00:07.975Z,65.10
2023-04-14T16:02:43.105Z,63.80
2023-04-14T16:05:11.894Z,64.00
2023-04-14T16:07:43.620Z,63.20
2023-04-14T16:10:12.051Z,64.30
2023-04-14T16:12:40.681Z,65.80
2023-04-14T16:15:09.413Z,65.30
2023-04-14T16:17:37.442Z,68.20
2023-04-14T16:20:06.134Z,67.90
2023-04-14T16:22:34.200Z,68.50
2023-04-14T16:25:04.362Z,66.40
2023-04-14T16:27:32.323Z,66.70
2023-04-14T16:30:00.478Z,69.50
2023-04-14T16:32:32.561Z,70.00
2023-04-14T16:35:01.062Z,64.30
2023-04-14T16:37:29.142Z,67.90
2023-04-14T16:39:57.542Z,68.80
2023-04-14T16:42:27.436Z,67.50
2023-04-14T16:44:56.473Z,67.70
2023-04-14T16:47:24.564Z,66.40
2023-04-14T16:49:52.947Z,64.90
2023-04-14T16:52:21.224Z,64.10
2023-04-14T16:54:49.226Z,66.30
2023-04-14T16:57:17.394Z,66.90
2023-04-14T16:59:48.094Z,68.60
2023-04-14T17:02:16.375Z,69.90
2023-04-14T17:04:44.618Z,69.00
2023-04-14T17:07:12.667Z,71.00
2023-04-14T17:09:40.855Z,70.60
2023-04-14T17:12:08.824Z,70.50
2023-04-14T17:14:37.320Z,71.60
2023-04-14T17:17:07.207Z,68.90
2023-04-14T17:19:35.193Z,67.80
2023-04-14T17:22:03.582Z,69.00
2023-04-14T17:24:31.718Z,68.20
2023-04-14T17:27:00.472Z,68.80
2023-04-14T17:29:28.976Z,69.50
2023-04-14T17:31:57.062Z,69.80
2023-04-14T17:34:27.073Z,69.60
2023-04-14T17:36:55.859Z,69.80
2023-04-14T17:39:26.770Z,72.30
2023-04-14T17:41:56.014Z,70.10
2023-04-14T17:44:31.204Z,72.40
2023-04-14T17:47:00.893Z,73.30
2023-04-14T17:49:30.311Z,70.70
2023-04-14T17:51:59.080Z,70.30
2023-04-14T17:54:27.394Z,69.70
2023-04-14T17:56:56.665Z,70.50
2023-04-14T17:59:24.736Z,69.30
2023-04-14T18:01:52.727Z,79.80
2023-04-14T18:04:21.297Z,83.00
2023-04-14T18:06:51.063Z,86.70
2023-04-14T18:09:19.022Z,88.90
2023-04-14T18:11:47.026Z,90.90
2023-04-14T18:14:15.335Z,91.40
2023-04-14T18:16:43.355Z,92.20
2023-04-14T18:19:11.375Z,93.50
2023-04-14T18:21:39.346Z,94.70
2023-04-14T18:26:41.168Z,97.40
2023-04-14T18:29:09.243Z,97.40
2023-04-14T18:31:37.532Z,98.40
2023-04-14T18:34:06.786Z,99.10
2023-04-14T18:36:34.805Z,99.00
2023-04-14T18:39:03.078Z,97.50
2023-04-14T18:41:32.474Z,97.50
2023-04-14T18:44:00.441Z,97.00
2023-04-14T18:46:28.517Z,97.70
2023-04-14T18:48:56.601Z,98.40
2023-04-14T18:51:25.922Z,99.40
2023-04-14T18:53:54.314Z,99.90
2023-04-14T18:56:22.396Z,99.90
2023-04-14T18:58:51.753Z,99.90
2023-04-14T19:01:19.909Z,99.90
2023-04-14T19:03:47.869Z,99.90
2023-04-14T19:06:15.882Z,99.90
2023-04-14T19:08:43.852Z,99.90
2023-04-14T19:11:12.172Z,99.90
2023-04-14T19:13:41.770Z,99.90
2023-04-14T19:16:12.447Z,99.90
2023-04-14T19:18:40.889Z,99.90
2023-04-14T19:21:09.285Z,99.90
2023-04-14T19:23:38.156Z,99.90
2023-04-14T19:26:08.062Z,99.90
2023-04-14T19:28:39.606Z,99.90
2023-04-14T19:31:07.915Z,99.90
2023-04-14T19:33:37.466Z,99.90
2023-04-14T19:36:12.613Z,99.90
2023-04-14T19:38:40.601Z,99.90
2023-04-14T19:41:08.745Z,99.90
2023-04-14T19:43:37.229Z,99.90
2023-04-14T19:46:05.569Z,99.90
2023-04-14T19:48:33.992Z,99.90
2023-04-14T19:51:04.077Z,99.90
2023-04-14T19:53:32.081Z,99.90
2023-04-14T19:56:00.226Z,99.90
2023-04-14T19:58:30.420Z,99.90
2023-04-14T20:00:58.715Z,99.90
2023-04-14T20:03:28.166Z,99.90
2023-04-14T20:05:57.801Z,99.90
2023-04-14T20:08:27.621Z,99.90
2023-04-14T20:10:56.413Z,99.90
2023-04-14T20:13:27.621Z,99.90
2023-04-14T20:15:56.215Z,99.90
2023-04-14T20:18:25.995Z,99.90
2023-04-14T20:20:54.700Z,99.90
2023-04-14T20:23:22.782Z,99.90
2023-04-14T20:25:52.863Z,99.90
2023-04-14T20:28:23.017Z,99.90
2023-04-14T20:30:52.554Z,99.90
2023-04-14T20:33:22.100Z,99.90
2023-04-14T20:35:51.531Z,99.90
2023-04-14T20:38:20.320Z,99.90
2023-04-14T20:40:48.340Z,99.90
2023-04-14T20:43:17.653Z,99.90
2023-04-14T20:45:46.004Z,99.90
2023-04-14T20:48:13.988Z,99.90
2023-04-14T20:50:44.228Z,99.90
2023-04-14T20:53:12.307Z,99.90
2023-04-14T20:55:41.108Z,99.90
2023-04-14T20:58:09.165Z,99.90
2023-04-14T21:00:38.472Z,99.90
2023-04-14T21:03:06.961Z,99.90
2023-04-14T21:05:35.528Z,99.90
2023-04-14T21:08:03.686Z,99.90
2023-04-14T21:10:31.636Z,99.90
2023-04-14T21:15:25.125Z,99.90
2023-04-14T21:15:55.595Z,99.90
2023-04-14T21:18:24.992Z,99.90
2023-04-14T21:20:52.941Z,99.90
2023-04-14T21:23:21.224Z,99.90
2023-04-14T21:25:49.324Z,99.90
2023-04-14T21:28:18.055Z,99.90
2023-04-14T21:30:46.096Z,99.90
2023-04-14T21:33:15.457Z,99.90
2023-04-14T21:35:43.493Z,99.90
2023-04-14T21:38:11.437Z,99.90
2023-04-14T21:40:39.512Z,99.90
2023-04-14T21:43:07.496Z,99.90
2023-04-14T21:45:35.877Z,99.90
2023-04-14T21:48:04.117Z,99.90
2023-04-14T21:50:34.561Z,99.90
2023-04-14T21:53:02.791Z,99.90
2023-04-14T21:55:31.623Z,99.90
2023-04-14T21:58:00.310Z,99.90
2023-04-14T22:00:28.412Z,99.90
2023-04-14T22:02:56.515Z,99.90
2023-04-14T22:05:24.664Z,99.90
2023-04-14T22:07:55.042Z,99.90
2023-04-14T22:10:23.464Z,99.90
2023-04-14T22:12:51.931Z,99.90
2023-04-14T22:15:20.124Z,99.90
2023-04-14T22:17:48.108Z,99.90
2023-04-14T22:20:16.504Z,99.90
2023-04-14T22:22:44.562Z,99.90
2023-04-14T22:25:14.255Z,99.90
2023-04-14T22:27:42.216Z,99.90
2023-04-14T22:30:11.599Z,99.90
2023-04-14T22:32:39.638Z,99.90
2023-04-14T22:35:08.372Z,99.90
2023-04-14T22:37:36.510Z,99.90
2023-04-14T22:40:04.900Z,99.90
2023-04-14T22:42:34.207Z,99.90
2023-04-14T22:45:02.347Z,99.90
2023-04-14T22:47:30.405Z,99.90
2023-04-14T22:49:58.426Z,99.90
2023-04-14T22:52:28.604Z,99.90
2023-04-14T22:54:56.705Z,99.90
2023-04-14T22:57:24.721Z,99.90
2023-04-14T22:59:54.061Z,99.90
2023-04-14T23:02:22.434Z,99.90
2023-04-14T23:04:50.662Z,99.90
2023-04-14T23:07:18.608Z,99.90
2023-04-14T23:09:46.568Z,99.90
2023-04-14T23:12:14.560Z,99.90
2023-04-14T23:14:42.499Z,99.90
2023-04-14T23:17:12.433Z,99.90
2023-04-14T23:19:40.364Z,99.90
2023-04-14T23:22:08.291Z,99.90
2023-04-14T23:24:36.283Z,99.90
2023-04-14T23:27:04.396Z,99.90
2023-04-14T23:29:32.329Z,99.90
2023-04-14T23:32:00.284Z,99.90
2023-04-14T23:34:29.758Z,99.90
2023-04-14T23:36:57.748Z,99.90
2023-04-14T23:39:25.678Z,99.90
2023-04-14T23:41:54.365Z,99.90
2023-04-14T23:44:22.384Z,99.90
2023-04-14T23:46:51.031Z,99.90
2023-04-14T23:49:23.175Z,99.90
2023-04-14T23:51:53.906Z,99.90
2023-04-14T23:54:21.870Z,99.90
2023-04-14T23:56:49.890Z,99.90
2023-04-14T23:59:17.851Z,99.90
